Terminal Aerodrome Forecast
Issued by NWS

Home | Current Version | Previous Version | Text Only | Print | Product List | Glossary On
Versions: 1 2 3 4 5 6 7 8 9 10 11 12 13 14 15 16 17 18 19 20 21 22 23 24 25
000
FTUS41 KGYX 250604 AAA
TAFLEB
TAF AMD
KLEB 250604Z 2506/2606 VRB03KT 6SM BR BKN001
      TEMPO 2507/2511 1SM BR BKN001
     FM251400 18005KT 1 1/2SM -SHRA BR BKN015
     FM260300 26009KT 3SM -SHRA BR OVC025=

USA.gov is the U.S. government's official web portal to all federal, state and local government web resources and services.